Time;durP1;ratioP1;P1;durP2;ratioP2;P2;SDS_P1;SDS_P2;PMS_P1;PMS_P2;Temp;Humidity;BMP_temperature;BMP_pressure;BME280_temperature;BME280_humidity;BME280_pressure;Samples;Min_cycle;Max_cycle;Signal;HPM_P1;HPM_P2
2022/02/18 00:00:10;;;;;;;;;;;12.90;99.90;13.20;99847.00;;;;339305;28;83455;-92
2022/02/18 00:00:21;;;;;;;;;;;12.90;99.90;13.20;99842.00;;;;339671;28;96541;-93
2022/02/18 00:00:33;;;;;;;;;;;12.90;99.90;13.20;99836.00;;;;340073;28;83362;-93
2022/02/18 00:00:46;;;;;;;;;;;12.80;99.90;13.20;99837.00;;;;336861;28;95769;-93
2022/02/18 00:00:58;;;;;;;;;;;12.90;99.90;13.20;99834.00;;;;337922;28;83442;-92
2022/02/18 00:01:16;;;;;;;;;;;12.90;99.90;13.20;99827.00;;;;337310;28;95108;-93
2022/02/18 00:01:28;;;;;;;;;;;12.90;99.90;13.20;99835.00;;;;338000;28;82381;-93
2022/02/18 00:01:40;;;;;;;;;;;12.90;99.90;13.30;99829.00;;;;337067;28;94833;-93
2022/02/18 00:01:51;;;;;;;;;;;12.90;99.90;13.40;99826.00;;;;338056;28;83374;-92
2022/02/18 00:02:03;;;;;;;;;;;12.90;99.90;13.40;99826.00;;;;338633;28;96413;-92
2022/02/18 00:02:15;;;;;;;;;;;12.90;99.90;13.30;99828.00;;;;336585;28;82661;-93
2022/02/18 00:02:27;;;;;;;;;;;12.90;99.90;13.30;99833.00;;;;338708;28;94189;-93
2022/02/18 00:02:39;;;;;;;;;;;12.90;99.90;13.30;99830.00;;;;337892;28;83376;-93
2022/02/18 00:02:51;;;;;;;;;;;13.00;99.90;13.30;99831.00;;;;341275;28;96738;-93
2022/02/18 00:03:03;;;;;;;;;;;12.90;99.90;13.30;99830.00;;;;340826;28;82403;-93
2022/02/18 00:03:15;;;;;;;;;;;12.90;99.90;13.30;99826.00;;;;335962;28;96397;-93
2022/02/18 00:03:27;;;;;;;;;;;13.00;99.90;13.30;99827.00;;;;340366;28;83386;-93
2022/02/18 00:03:40;;;;;;;;;;;12.90;99.90;13.30;99824.00;;;;336836;28;95957;-93
2022/02/18 00:03:54;;;;;;;;;;;12.90;99.90;13.30;99827.00;;;;339171;28;83257;-93
2022/02/18 00:04:06;;;;;;;;;;;13.00;99.90;13.30;99826.00;;;;339860;28;95014;-93
2022/02/18 00:04:18;;;;;;;;;;;12.90;99.90;13.40;99824.00;;;;337941;28;83447;-93
2022/02/18 00:04:30;;;;;;;;;;;12.90;99.90;13.40;99828.00;;;;337300;28;95787;-93
2022/02/18 00:04:41;;;;;;;;;;;12.90;99.90;13.30;99822.00;;;;338173;28;83417;-92
2022/02/18 00:04:53;;;;;;;;;;;12.90;99.90;13.30;99826.00;;;;338388;28;97606;-93
2022/02/18 00:05:05;;;;;;;;;;;12.90;99.90;13.30;99822.00;;;;339269;28;83559;-93
2022/02/18 00:05:17;;;;;;;;;;;12.90;99.90;13.30;99836.00;;;;337268;28;95242;-93
2022/02/18 00:05:29;;;;;;;;;;;13.00;99.90;13.30;99831.00;;;;339432;28;83432;-93
2022/02/18 00:05:41;;;;;;;;;;;12.90;99.90;13.30;99833.00;;;;339828;28;95689;-93
2022/02/18 00:05:53;;;;;;;;;;;12.90;99.90;13.30;99824.00;;;;339249;28;83398;-93
2022/02/18 00:06:05;;;;;;;;;;;13.00;99.90;13.30;99830.00;;;;338435;28;96392;-93
2022/02/18 00:06:17;;;;;;;;;;;12.90;99.90;13.30;99822.00;;;;337982;28;83408;-93
2022/02/18 00:06:29;;;;;;;;;;;13.00;99.90;13.30;99826.00;;;;336898;28;96684;-93
2022/02/18 00:06:41;;;;;;;;;;;12.90;99.90;13.20;99830.00;;;;340498;28;83386;-93
2022/02/18 00:06:53;;;;;;;;;;;13.00;99.90;13.30;99833.00;;;;339765;28;97503;-93
2022/02/18 00:07:06;;;;;;;;;;;12.90;99.90;13.30;99836.00;;;;338032;28;83297;-93
2022/02/18 00:07:17;;;;;;;;;;;12.90;99.90;13.30;99827.00;;;;337222;28;96159;-93
2022/02/18 00:07:29;;;;;;;;;;;13.00;99.90;13.30;99826.00;;;;338049;28;82298;-93
2022/02/18 00:07:41;;;;;;;;;;;13.00;99.90;13.30;99828.00;;;;337221;28;95309;-94
2022/02/18 00:07:53;;;;;;;;;;;13.00;99.90;13.20;99830.00;;;;339385;28;83438;-93
2022/02/18 00:08:05;;;;;;;;;;;13.00;99.90;13.20;99828.00;;;;339937;28;96955;-93
2022/02/18 00:08:17;;;;;;;;;;;13.00;99.90;13.20;99832.00;;;;340663;28;83591;-93
2022/02/18 00:08:28;;;;;;;;;;;13.00;99.90;13.10;99827.00;;;;341332;28;96683;-93
2022/02/18 00:08:41;;;;;;;;;;;12.90;99.90;13.10;99828.00;;;;337860;28;82341;-93
2022/02/18 00:08:53;;;;;;;;;;;13.00;99.90;13.10;99836.00;;;;335896;28;96137;-93
2022/02/18 00:09:05;;;;;;;;;;;12.90;99.90;13.10;99829.00;;;;339202;28;82491;-93
2022/02/18 00:09:16;;;;;;;;;;;13.00;99.90;13.10;99829.00;;;;335631;28;95402;-94
2022/02/18 00:09:28;;;;;;;;;;;12.90;99.90;13.10;99823.00;;;;338949;28;83416;-93
2022/02/18 00:09:40;;;;;;;;;;;12.90;99.90;13.10;99828.00;;;;339739;28;96213;-93
2022/02/18 00:09:52;;;;;;;;;;;12.90;99.90;13.10;99826.00;;;;339221;28;83422;-93
2022/02/18 00:10:04;;;;;;;;;;;12.90;99.90;13.10;99820.00;;;;338327;28;95537;-93
2022/02/18 00:10:16;;;;;;;;;;;12.90;99.90;13.10;99827.00;;;;342067;28;83294;-93
2022/02/18 00:10:27;;;;;;;;;;;12.90;99.90;13.10;99822.00;;;;339919;28;94281;-93
2022/02/18 00:10:40;;;;;;;;;;;12.90;99.90;13.10;99817.00;;;;338035;28;82298;-92
2022/02/18 00:10:52;;;;;;;;;;;12.90;99.90;13.20;99826.00;;;;337141;28;97427;-93
2022/02/18 00:11:04;;;;;;;;;;;12.90;99.90;13.30;99821.00;;;;337969;28;82467;-93
2022/02/18 00:11:16;;;;;;;;;;;12.90;99.90;13.30;99822.00;;;;337319;28;94804;-92
2022/02/18 00:11:28;;;;;;;;;;;12.90;99.90;13.40;99817.00;;;;339366;28;83339;-93
2022/02/18 00:11:40;;;;;;;;;;;12.90;99.90;13.30;99811.00;;;;337165;28;96313;-93
2022/02/18 00:11:52;;;;;;;;;;;13.00;99.90;13.40;99811.00;;;;336272;28;83552;-93
2022/02/18 00:12:04;;;;;;;;;;;12.90;99.90;13.30;99820.00;;;;337116;28;96099;-93
2022/02/18 00:12:16;;;;;;;;;;;12.90;99.90;13.30;99820.00;;;;339006;28;83380;-93
2022/02/18 00:12:27;;;;;;;;;;;12.90;99.90;13.30;99821.00;;;;336772;28;96814;-93
2022/02/18 00:12:39;;;;;;;;;;;12.90;99.90;13.30;99822.00;;;;341767;28;83558;-93
2022/02/18 00:12:51;;;;;;;;;;;12.90;99.90;13.30;99820.00;;;;341149;28;97356;-93
2022/02/18 00:13:04;;;;;;;;;;;12.90;99.90;13.30;99817.00;;;;338072;28;83413;-93
2022/02/18 00:13:16;;;;;;;;;;;12.90;99.90;13.30;99819.00;;;;341172;28;95582;-93
2022/02/18 00:13:28;;;;;;;;;;;12.90;99.90;13.40;99812.00;;;;341985;28;83433;-93
2022/02/18 00:13:40;;;;;;;;;;;13.00;99.90;13.40;99812.00;;;;337084;28;96637;-92
2022/02/18 00:13:51;;;;;;;;;;;13.00;99.90;13.40;99817.00;;;;338010;28;83444;-93
2022/02/18 00:14:03;;;;;;;;;;;13.00;99.90;13.30;99810.00;;;;338652;28;95296;-93
2022/02/18 00:14:15;;;;;;;;;;;13.00;99.90;13.30;99809.00;;;;340633;28;83388;-93
2022/02/18 00:14:27;;;;;;;;;;;13.00;99.90;13.40;99809.00;;;;341047;28;96524;-93
2022/02/18 00:14:39;;;;;;;;;;;13.00;99.90;13.30;99813.00;;;;338139;28;82403;-93
2022/02/18 00:14:51;;;;;;;;;;;13.00;99.90;13.30;99808.00;;;;337705;28;97351;-92
2022/02/18 00:15:04;;;;;;;;;;;13.00;99.90;13.30;99813.00;;;;340657;28;83467;-93
2022/02/18 00:15:17;;;;;;;;;;;13.00;99.90;13.20;99811.00;;;;337307;28;95464;-92
2022/02/18 00:15:29;;;;;;;;;;;13.00;99.90;13.30;99806.00;;;;340194;28;83541;-93
2022/02/18 00:15:41;;;;;;;;;;;13.00;99.90;13.20;99806.00;;;;338810;28;95533;-93
2022/02/18 00:15:52;;;;;;;;;;;13.00;99.90;13.20;99806.00;;;;340733;28;83448;-93
2022/02/18 00:16:04;;;;;;;;;;;12.90;99.90;13.30;99807.00;;;;339853;28;96672;-93
2022/02/18 00:16:16;;;;;;;;;;;12.90;99.90;13.40;99806.00;;;;340603;28;82414;-93
2022/02/18 00:16:28;;;;;;;;;;;13.00;99.90;13.30;99811.00;;;;340002;28;96386;-93
2022/02/18 00:16:40;;;;;;;;;;;13.00;99.90;13.30;99804.00;;;;339276;28;82657;-93
2022/02/18 00:16:51;;;;;;;;;;;13.00;99.90;13.20;99805.00;;;;337400;28;96563;-93
2022/02/18 00:17:04;;;;;;;;;;;12.90;99.90;13.20;99802.00;;;;338971;28;83453;-93
2022/02/18 00:17:15;;;;;;;;;;;12.90;99.90;13.20;99805.00;;;;339873;28;95810;-93
2022/02/18 00:17:27;;;;;;;;;;;13.00;99.90;13.10;99801.00;;;;340763;28;82425;-93
2022/02/18 00:17:41;;;;;;;;;;;12.90;99.90;13.20;99801.00;;;;337225;28;95563;-93
2022/02/18 00:17:53;;;;;;;;;;;12.90;99.90;13.10;99805.00;;;;340746;28;82720;-93
2022/02/18 00:18:05;;;;;;;;;;;12.90;99.90;13.10;99807.00;;;;338446;28;95717;-93
2022/02/18 00:18:17;;;;;;;;;;;12.90;99.90;13.10;99803.00;;;;339258;28;83509;-93
2022/02/18 00:18:29;;;;;;;;;;;12.90;99.90;13.10;99807.00;;;;339414;28;96862;-94
2022/02/18 00:18:42;;;;;;;;;;;12.90;99.90;13.10;99810.00;;;;338094;28;82434;-93
2022/02/18 00:18:54;;;;;;;;;;;12.90;99.90;13.10;99811.00;;;;338121;28;97795;-92
2022/02/18 00:19:06;;;;;;;;;;;12.90;99.90;13.10;99798.00;;;;339178;28;83373;-93
2022/02/18 00:19:19;;;;;;;;;;;12.90;99.90;13.10;99804.00;;;;334592;29;97017;-93
2022/02/18 00:19:30;;;;;;;;;;;12.90;99.90;13.10;99806.00;;;;337604;28;83855;-92
2022/02/18 00:19:42;;;;;;;;;;;12.90;99.90;13.10;99808.00;;;;335855;28;96738;-93
2022/02/18 00:19:54;;;;;;;;;;;12.90;99.90;13.10;99811.00;;;;339126;28;83291;-93
2022/02/18 00:20:07;;;;;;;;;;;12.90;99.90;13.10;99810.00;;;;339836;28;96291;-93
2022/02/18 00:20:19;;;;;;;;;;;12.90;99.90;13.10;99806.00;;;;336708;28;83433;-93
2022/02/18 00:20:31;;;;;;;;;;;12.90;99.90;13.10;99807.00;;;;336014;28;95845;-94
2022/02/18 00:20:43;;;;;;;;;;;12.90;99.90;13.10;99806.00;;;;339238;28;82591;-93
2022/02/18 00:20:55;;;;;;;;;;;12.90;99.90;13.10;99806.00;;;;339569;28;97442;-93
2022/02/18 00:21:06;;;;;;;;;;;12.90;99.90;13.10;99810.00;;;;337996;28;83317;-93
2022/02/18 00:21:18;;;;;;;;;;;12.90;99.90;13.20;99806.00;;;;337230;28;95412;-93
2022/02/18 00:21:30;;;;;;;;;;;12.90;99.90;13.20;99810.00;;;;336184;28;82525;-94
2022/02/18 00:21:42;;;;;;;;;;;12.90;99.90;13.20;99810.00;;;;339749;28;96414;-93
2022/02/18 00:21:53;;;;;;;;;;;12.90;99.90;13.20;99800.00;;;;341824;28;83417;-93
2022/02/18 00:22:05;;;;;;;;;;;12.90;99.90;13.20;99811.00;;;;337299;28;96880;-93
2022/02/18 00:22:17;;;;;;;;;;;12.90;99.90;13.20;99811.00;;;;337954;28;82580;-94
2022/02/18 00:22:29;;;;;;;;;;;12.90;99.90;13.20;99811.00;;;;336249;28;95729;-93
2022/02/18 00:22:41;;;;;;;;;;;12.90;99.90;13.20;99802.00;;;;338022;28;83323;-93
2022/02/18 00:22:52;;;;;;;;;;;12.90;99.90;13.20;99806.00;;;;338216;28;96407;-93
2022/02/18 00:23:05;;;;;;;;;;;12.90;99.90;13.20;99806.00;;;;340360;28;82462;-93
2022/02/18 00:23:17;;;;;;;;;;;12.90;99.90;13.30;99807.00;;;;339838;28;96582;-94
2022/02/18 00:23:29;;;;;;;;;;;12.90;99.90;13.20;99804.00;;;;339378;28;84506;-93
2022/02/18 00:23:40;;;;;;;;;;;12.90;99.90;13.20;99802.00;;;;337460;28;96806;-93
2022/02/18 00:23:52;;;;;;;;;;;12.90;99.90;13.20;99817.00;;;;336636;28;82429;-94
2022/02/18 00:24:05;;;;;;;;;;;12.90;99.90;13.20;99808.00;;;;338419;28;95588;-93
2022/02/18 00:24:17;;;;;;;;;;;12.90;99.90;13.10;99809.00;;;;340765;28;83363;-94
2022/02/18 00:24:29;;;;;;;;;;;12.90;99.90;13.20;99807.00;;;;339456;28;96107;-91
2022/02/18 00:24:40;;;;;;;;;;;12.90;99.90;13.20;99806.00;;;;337954;28;83329;-94
2022/02/18 00:24:52;;;;;;;;;;;12.90;99.90;13.20;99811.00;;;;337097;28;96539;-94
2022/02/18 00:25:08;;;;;;;;;;;12.90;99.90;13.20;99806.00;;;;339506;28;82265;-93
2022/02/18 00:25:21;;;;;;;;;;;12.90;99.90;13.20;99812.00;;;;339707;28;96494;-93
2022/02/18 00:25:34;;;;;;;;;;;12.90;99.90;13.20;99818.00;;;;336548;28;83506;-93
2022/02/18 00:25:46;;;;;;;;;;;12.90;99.90;13.20;99813.00;;;;335647;28;96797;-93
2022/02/18 00:25:58;;;;;;;;;;;12.90;99.90;13.20;99809.00;;;;339109;28;83352;-93
2022/02/18 00:26:11;;;;;;;;;;;12.90;99.90;13.20;99802.00;;;;337304;28;95165;-93
2022/02/18 00:26:23;;;;;;;;;;;12.90;99.90;13.20;99806.00;;;;338010;28;83516;-93
2022/02/18 00:26:34;;;;;;;;;;;12.90;99.90;13.20;99805.00;;;;335902;28;96734;-93
2022/02/18 00:26:46;;;;;;;;;;;12.90;99.90;13.20;99807.00;;;;336810;28;83380;-94
2022/02/18 00:26:58;;;;;;;;;;;12.90;99.90;13.20;99807.00;;;;338390;28;97627;-93
2022/02/18 00:27:10;;;;;;;;;;;12.90;99.90;13.20;99813.00;;;;339328;28;83183;-93
2022/02/18 00:27:22;;;;;;;;;;;12.90;99.90;13.20;99808.00;;;;338441;28;96823;-94
2022/02/18 00:27:40;;;;;;;;;;;12.90;99.90;13.20;99800.00;;;;341053;28;83608;-94
2022/02/18 00:27:52;;;;;;;;;;;12.90;99.90;13.10;99804.00;;;;337196;28;96592;-92
2022/02/18 00:28:05;;;;;;;;;;;12.90;99.90;13.10;99807.00;;;;340680;28;83529;-94
2022/02/18 00:28:17;;;;;;;;;;;12.90;99.90;13.10;99809.00;;;;337306;28;97168;-93
2022/02/18 00:28:29;;;;;;;;;;;12.90;99.90;13.10;99808.00;;;;336799;28;83446;-93
2022/02/18 00:28:41;;;;;;;;;;;12.90;99.90;13.20;99807.00;;;;338633;28;93765;-93
2022/02/18 00:28:54;;;;;;;;;;;12.90;99.90;13.20;99808.00;;;;339295;28;83408;-94
2022/02/18 00:29:09;;;;;;;;;;;12.90;99.90;13.30;99805.00;;;;337301;28;96478;-93
2022/02/18 00:29:21;;;;;;;;;;;12.90;99.90;13.30;99807.00;;;;339444;28;82453;-93
2022/02/18 00:29:33;;;;;;;;;;;12.90;99.90;13.30;99807.00;;;;339786;28;95549;-93
2022/02/18 00:29:44;;;;;;;;;;;12.90;99.90;13.30;99807.00;;;;340298;28;82560;-93
2022/02/18 00:29:56;;;;;;;;;;;12.90;99.90;13.30;99811.00;;;;337205;28;96434;-93
2022/02/18 00:30:09;;;;;;;;;;;12.90;99.90;13.20;99804.00;;;;338049;28;82332;-94
2022/02/18 00:30:20;;;;;;;;;;;12.90;99.90;13.20;99811.00;;;;338244;28;94867;-94
2022/02/18 00:30:32;;;;;;;;;;;12.90;99.90;13.20;99804.00;;;;338650;28;83483;-94
2022/02/18 00:30:44;;;;;;;;;;;12.90;99.90;13.20;99809.00;;;;337094;28;96732;-94
2022/02/18 00:30:56;;;;;;;;;;;12.90;99.90;13.30;99818.00;;;;339280;28;83389;-94
2022/02/18 00:31:08;;;;;;;;;;;12.90;99.90;13.30;99810.00;;;;335820;28;97356;-93
2022/02/18 00:31:20;;;;;;;;;;;12.90;99.90;13.30;99809.00;;;;338035;28;83203;-94
2022/02/18 00:31:31;;;;;;;;;;;12.90;99.90;13.20;99805.00;;;;337770;28;96470;-93
2022/02/18 00:31:43;;;;;;;;;;;12.90;99.90;13.30;99811.00;;;;337974;28;83445;-93
2022/02/18 00:31:55;;;;;;;;;;;12.90;99.90;13.30;99808.00;;;;337201;28;96574;-93
2022/02/18 00:32:08;;;;;;;;;;;12.90;99.90;13.40;99808.00;;;;338045;28;83278;-94
2022/02/18 00:32:20;;;;;;;;;;;12.90;99.90;13.50;99805.00;;;;337028;28;96444;-93
2022/02/18 00:32:32;;;;;;;;;;;12.90;99.90;13.50;99811.00;;;;339240;28;83454;-93
2022/02/18 00:32:44;;;;;;;;;;;13.00;99.90;13.50;99804.00;;;;339895;28;96298;-93
2022/02/18 00:32:55;;;;;;;;;;;13.00;99.90;13.50;99806.00;;;;337920;28;83373;-94
2022/02/18 00:33:08;;;;;;;;;;;13.00;99.90;13.50;99812.00;;;;337101;28;96525;-93
2022/02/18 00:33:20;;;;;;;;;;;13.00;99.90;13.40;99800.00;;;;339421;28;82516;-93
2022/02/18 00:33:32;;;;;;;;;;;13.00;99.90;13.30;99800.00;;;;336649;28;96757;-94
2022/02/18 00:33:44;;;;;;;;;;;13.00;99.90;13.40;99810.00;;;;339083;28;82491;-94
2022/02/18 00:33:55;;;;;;;;;;;13.00;99.90;13.30;99800.00;;;;339790;28;95784;-93
2022/02/18 00:34:08;;;;;;;;;;;13.00;99.90;13.30;99802.00;;;;340671;28;84005;-94
2022/02/18 00:34:19;;;;;;;;;;;13.00;99.90;13.30;99801.00;;;;339848;28;96519;-93
2022/02/18 00:34:31;;;;;;;;;;;13.00;99.90;13.30;99797.00;;;;338043;28;83465;-92
2022/02/18 00:34:43;;;;;;;;;;;13.00;99.90;13.30;99807.00;;;;337202;28;96235;-93
2022/02/18 00:34:55;;;;;;;;;;;13.00;99.90;13.30;99806.00;;;;339385;28;82354;-94
2022/02/18 00:35:07;;;;;;;;;;;13.00;99.90;13.30;99801.00;;;;338487;28;97809;-92
2022/02/18 00:35:22;;;;;;;;;;;13.00;99.90;13.30;99800.00;;;;340612;28;83442;-93
2022/02/18 00:35:34;;;;;;;;;;;13.00;99.90;13.30;99794.00;;;;338881;28;96589;-93
2022/02/18 00:35:46;;;;;;;;;;;13.00;99.90;13.30;99806.00;;;;340690;28;82408;-90
2022/02/18 00:35:58;;;;;;;;;;;13.00;99.90;13.30;99794.00;;;;339885;28;96650;-92
2022/02/18 00:36:09;;;;;;;;;;;13.00;99.90;13.30;99801.00;;;;339281;28;83400;-93
2022/02/18 00:36:21;;;;;;;;;;;13.00;99.90;13.30;99804.00;;;;339909;28;96888;-89
2022/02/18 00:36:33;;;;;;;;;;;13.00;99.90;13.30;99797.00;;;;337751;28;82661;-91
2022/02/18 00:36:45;;;;;;;;;;;13.00;99.90;13.30;99804.00;;;;339681;28;95345;-92
2022/02/18 00:36:57;;;;;;;;;;;12.90;99.90;13.30;99798.00;;;;339072;28;83441;-92
2022/02/18 00:37:08;;;;;;;;;;;13.00;99.90;13.30;99803.00;;;;335626;28;96461;-92
2022/02/18 00:37:20;;;;;;;;;;;13.00;99.90;13.30;99797.00;;;;337873;28;82502;-92
2022/02/18 00:37:32;;;;;;;;;;;12.90;99.90;13.40;99798.00;;;;338444;28;95389;-93
2022/02/18 00:37:44;;;;;;;;;;;13.00;99.90;13.40;99794.00;;;;340612;28;83332;-91
2022/02/18 00:37:56;;;;;;;;;;;13.00;99.90;13.40;99798.00;;;;339864;28;96700;-92
2022/02/18 00:38:08;;;;;;;;;;;13.00;99.90;13.40;99803.00;;;;339350;28;82538;-92
2022/02/18 00:38:22;;;;;;;;;;;13.00;99.90;13.40;99798.00;;;;339981;28;93204;-92
2022/02/18 00:38:33;;;;;;;;;;;13.00;99.90;13.30;99799.00;;;;339176;28;83365;-92
2022/02/18 00:38:45;;;;;;;;;;;13.00;99.90;13.40;99795.00;;;;339547;28;96309;-93
2022/02/18 00:38:57;;;;;;;;;;;13.00;99.90;13.30;99804.00;;;;340541;28;83478;-92
2022/02/18 00:39:09;;;;;;;;;;;13.00;99.90;13.40;99793.00;;;;341125;28;97702;-89
2022/02/18 00:39:22;;;;;;;;;;;13.00;99.90;13.30;99790.00;;;;340744;28;82441;-94
2022/02/18 00:39:34;;;;;;;;;;;13.00;99.90;13.30;99796.00;;;;338262;28;97027;-93
2022/02/18 00:39:51;;;;;;;;;;;13.00;99.90;13.30;99798.00;;;;339041;28;83580;-93
2022/02/18 00:40:04;;;;;;;;;;;12.90;99.90;13.30;99804.00;;;;338519;28;96631;-93
2022/02/18 00:40:16;;;;;;;;;;;13.00;99.90;13.20;99792.00;;;;340521;28;83542;-93
2022/02/18 00:40:28;;;;;;;;;;;12.90;99.90;13.20;99792.00;;;;341252;28;95561;-93
2022/02/18 00:40:39;;;;;;;;;;;12.90;99.90;13.20;99788.00;;;;339159;28;83290;-93
2022/02/18 00:40:51;;;;;;;;;;;12.90;99.90;13.10;99791.00;;;;336943;28;96266;-93
2022/02/18 00:41:04;;;;;;;;;;;12.90;99.90;13.10;99785.00;;;;336614;28;83332;-93
2022/02/18 00:41:16;;;;;;;;;;;12.90;99.90;13.10;99793.00;;;;339875;28;96749;-93
2022/02/18 00:41:29;;;;;;;;;;;12.90;99.90;13.10;99787.00;;;;339331;28;82463;-93
2022/02/18 00:41:41;;;;;;;;;;;12.90;99.90;13.10;99787.00;;;;335885;28;95816;-93
2022/02/18 00:41:53;;;;;;;;;;;12.90;99.90;13.10;99783.00;;;;337931;28;83343;-93
2022/02/18 00:42:05;;;;;;;;;;;12.90;99.90;13.20;99783.00;;;;335715;28;95608;-93
2022/02/18 00:42:16;;;;;;;;;;;12.90;99.90;13.20;99791.00;;;;339081;28;82467;-93
2022/02/18 00:42:28;;;;;;;;;;;12.90;99.90;13.20;99782.00;;;;336726;28;95477;-93
2022/02/18 00:42:40;;;;;;;;;;;12.90;99.90;13.20;99787.00;;;;336119;28;82496;-93
2022/02/18 00:42:53;;;;;;;;;;;12.90;99.90;13.10;99778.00;;;;341181;28;95520;-93
2022/02/18 00:43:05;;;;;;;;;;;12.90;99.90;13.20;99786.00;;;;336695;28;83423;-93
2022/02/18 00:43:16;;;;;;;;;;;12.90;99.90;13.20;99772.00;;;;338491;28;97108;-93
2022/02/18 00:43:28;;;;;;;;;;;12.90;99.90;13.20;99785.00;;;;340689;28;83223;-93
2022/02/18 00:43:40;;;;;;;;;;;12.90;99.90;13.20;99785.00;;;;338390;28;96918;-93
2022/02/18 00:43:52;;;;;;;;;;;12.90;99.90;13.20;99786.00;;;;339317;28;83396;-93
2022/02/18 00:44:06;;;;;;;;;;;12.90;99.90;13.20;99773.00;;;;337230;28;95496;-93
2022/02/18 00:44:18;;;;;;;;;;;12.90;99.90;13.20;99781.00;;;;339229;28;83563;-93
2022/02/18 00:44:30;;;;;;;;;;;12.90;99.90;13.10;99779.00;;;;338250;28;96020;-93
2022/02/18 00:44:43;;;;;;;;;;;12.90;99.90;13.10;99776.00;;;;336905;28;83610;-93
2022/02/18 00:44:55;;;;;;;;;;;12.90;99.90;13.20;99774.00;;;;339851;28;96424;-93
2022/02/18 00:45:07;;;;;;;;;;;12.90;99.90;13.10;99766.00;;;;341984;28;83401;-92
2022/02/18 00:45:20;;;;;;;;;;;12.90;99.90;13.10;99778.00;;;;335816;28;96820;-93
2022/02/18 00:45:32;;;;;;;;;;;12.80;99.90;13.10;99771.00;;;;337502;28;83491;-93
2022/02/18 00:45:48;;;;;;;;;;;12.80;99.90;13.10;99770.00;;;;335340;28;94766;-93
2022/02/18 00:46:00;;;;;;;;;;;12.80;99.90;13.10;99779.00;;;;340193;28;82530;-93
2022/02/18 00:46:12;;;;;;;;;;;12.80;99.90;13.10;99766.00;;;;339853;28;96967;-93
2022/02/18 00:46:23;;;;;;;;;;;12.80;99.90;13.10;99770.00;;;;339143;28;83422;-93
2022/02/18 00:46:35;;;;;;;;;;;12.80;99.90;13.20;99764.00;;;;338903;28;95555;-92
2022/02/18 00:46:48;;;;;;;;;;;12.80;99.90;13.30;99770.00;;;;340558;28;83385;-93
2022/02/18 00:46:59;;;;;;;;;;;12.80;99.90;13.30;99768.00;;;;339298;28;96654;-93
2022/02/18 00:47:11;;;;;;;;;;;12.80;99.90;13.30;99770.00;;;;339384;28;82566;-93
2022/02/18 00:47:23;;;;;;;;;;;12.80;99.90;13.30;99768.00;;;;339769;28;97298;-93
2022/02/18 00:47:35;;;;;;;;;;;12.80;99.90;13.20;99766.00;;;;340390;28;82587;-93
2022/02/18 00:47:47;;;;;;;;;;;12.80;99.90;13.20;99768.00;;;;338645;28;94063;-93
2022/02/18 00:47:59;;;;;;;;;;;12.80;99.90;13.10;99771.00;;;;339283;28;83397;-93
2022/02/18 00:48:11;;;;;;;;;;;12.80;99.90;13.20;99772.00;;;;338592;28;96927;-93
2022/02/18 00:48:24;;;;;;;;;;;12.80;99.90;13.20;99768.00;;;;340317;28;82509;-93
2022/02/18 00:48:36;;;;;;;;;;;12.80;99.90;13.20;99765.00;;;;339451;28;94149;-93
2022/02/18 00:48:48;;;;;;;;;;;12.80;99.90;13.30;99768.00;;;;339228;28;83460;-93
2022/02/18 00:49:00;;;;;;;;;;;12.80;99.90;13.20;99764.00;;;;336681;28;96695;-93
2022/02/18 00:49:12;;;;;;;;;;;12.80;99.90;13.20;99763.00;;;;337536;28;82573;-93
2022/02/18 00:49:24;;;;;;;;;;;12.80;99.90;13.30;99756.00;;;;337242;28;96882;-93
2022/02/18 00:49:37;;;;;;;;;;;12.80;99.90;13.30;99763.00;;;;338091;28;82503;-93
2022/02/18 00:49:49;;;;;;;;;;;12.80;99.90;13.30;99756.00;;;;338080;28;95851;-93
2022/02/18 00:50:01;;;;;;;;;;;12.80;99.90;13.20;99757.00;;;;340218;28;84696;-93
2022/02/18 00:50:12;;;;;;;;;;;12.80;99.90;13.20;99767.00;;;;337148;28;96834;-92
2022/02/18 00:50:24;;;;;;;;;;;12.80;99.90;13.20;99760.00;;;;338981;28;83496;-93
2022/02/18 00:50:36;;;;;;;;;;;12.80;99.90;13.30;99753.00;;;;339337;28;96373;-93
2022/02/18 00:50:48;;;;;;;;;;;12.80;99.90;13.30;99762.00;;;;340692;28;83277;-93
2022/02/18 00:51:00;;;;;;;;;;;12.80;99.90;13.30;99752.00;;;;339865;28;95181;-92
2022/02/18 00:51:12;;;;;;;;;;;12.80;99.90;13.30;99755.00;;;;340241;28;83561;-93
2022/02/18 00:51:23;;;;;;;;;;;12.80;99.90;13.30;99762.00;;;;338182;28;98276;-93
2022/02/18 00:51:35;;;;;;;;;;;12.80;99.90;13.30;99759.00;;;;339009;28;83472;-93
2022/02/18 00:51:47;;;;;;;;;;;12.80;99.90;13.20;99757.00;;;;339765;28;95410;-93
2022/02/18 00:51:59;;;;;;;;;;;12.80;99.90;13.30;99759.00;;;;338779;28;82583;-93
2022/02/18 00:52:11;;;;;;;;;;;12.80;99.90;13.10;99761.00;;;;334493;29;96863;-93
2022/02/18 00:52:23;;;;;;;;;;;12.80;99.90;13.20;99757.00;;;;336611;28;83408;-93
2022/02/18 00:52:35;;;;;;;;;;;12.80;99.90;13.20;99758.00;;;;337134;28;95642;-93
2022/02/18 00:52:47;;;;;;;;;;;12.80;99.90;13.10;99749.00;;;;339029;28;82553;-93
2022/02/18 00:52:59;;;;;;;;;;;12.80;99.90;13.20;99756.00;;;;339262;28;95569;-93
2022/02/18 00:53:11;;;;;;;;;;;12.80;99.90;13.20;99753.00;;;;339290;28;82547;-93
2022/02/18 00:53:23;;;;;;;;;;;12.80;99.90;13.10;99754.00;;;;341150;28;97860;-93
2022/02/18 00:53:35;;;;;;;;;;;12.80;99.90;13.00;99754.00;;;;337888;28;83364;-93
2022/02/18 00:53:47;;;;;;;;;;;12.70;99.90;13.00;99757.00;;;;338374;28;97229;-93
2022/02/18 00:53:58;;;;;;;;;;;12.70;99.90;13.00;99754.00;;;;340737;28;82610;-93
2022/02/18 00:54:11;;;;;;;;;;;12.80;99.90;13.00;99756.00;;;;337233;28;95864;-93
2022/02/18 00:54:23;;;;;;;;;;;12.70;99.90;13.10;99756.00;;;;340369;28;82497;-93
2022/02/18 00:54:35;;;;;;;;;;;12.70;99.90;13.10;99755.00;;;;339659;28;97976;-93
2022/02/18 00:54:47;;;;;;;;;;;12.70;99.90;13.10;99756.00;;;;337598;28;83387;-94
2022/02/18 00:54:59;;;;;;;;;;;12.70;99.90;13.00;99753.00;;;;337159;28;96788;-93
2022/02/18 00:55:11;;;;;;;;;;;12.70;99.90;12.90;99752.00;;;;340232;28;82523;-92
2022/02/18 00:55:23;;;;;;;;;;;12.70;99.90;12.90;99751.00;;;;341216;28;95010;-93
2022/02/18 00:55:35;;;;;;;;;;;12.70;99.90;13.00;99759.00;;;;340255;28;82477;-92
2022/02/18 00:55:47;;;;;;;;;;;12.70;99.90;12.90;99753.00;;;;339754;28;95267;-93
2022/02/18 00:55:59;;;;;;;;;;;12.70;99.90;13.00;99752.00;;;;340722;28;82445;-93
2022/02/18 00:56:10;;;;;;;;;;;12.70;99.90;13.00;99754.00;;;;341216;28;96290;-93
2022/02/18 00:56:22;;;;;;;;;;;12.60;99.90;13.10;99760.00;;;;339255;28;83389;-93
2022/02/18 00:56:34;;;;;;;;;;;12.60;99.90;13.10;99757.00;;;;338588;28;96236;-93
2022/02/18 00:56:46;;;;;;;;;;;12.60;99.90;13.10;99758.00;;;;339276;28;83340;-93
2022/02/18 00:56:58;;;;;;;;;;;12.60;99.90;13.10;99754.00;;;;338313;28;95556;-93
2022/02/18 00:57:10;;;;;;;;;;;12.70;99.90;13.10;99756.00;;;;338007;28;82421;-93
2022/02/18 00:57:22;;;;;;;;;;;12.70;99.90;13.10;99749.00;;;;339410;28;96379;-93
2022/02/18 00:57:34;;;;;;;;;;;12.60;99.90;13.00;99756.00;;;;341627;28;83524;-93
2022/02/18 00:57:46;;;;;;;;;;;12.60;99.90;13.00;99748.00;;;;338167;28;96520;-93
2022/02/18 00:57:58;;;;;;;;;;;12.60;99.90;13.10;99751.00;;;;337511;28;83508;-93
2022/02/18 00:58:10;;;;;;;;;;;12.60;99.90;13.10;99742.00;;;;339851;28;96791;-93
2022/02/18 00:58:23;;;;;;;;;;;12.70;99.90;12.90;99746.00;;;;337827;28;83635;-93
2022/02/18 00:58:35;;;;;;;;;;;12.60;99.90;13.00;99744.00;;;;335472;28;98218;-93
2022/02/18 00:58:47;;;;;;;;;;;12.60;99.90;12.90;99751.00;;;;340517;28;83395;-93
2022/02/18 00:59:02;;;;;;;;;;;12.60;99.90;12.80;99746.00;;;;338309;28;95244;-93
2022/02/18 00:59:14;;;;;;;;;;;12.60;99.90;12.70;99743.00;;;;336369;28;83501;-93
2022/02/18 00:59:26;;;;;;;;;;;12.60;99.90;12.70;99750.00;;;;335925;28;96400;-93
2022/02/18 00:59:38;;;;;;;;;;;12.60;99.90;12.70;99749.00;;;;339104;28;84032;-93
2022/02/18 00:59:49;;;;;;;;;;;12.60;99.90;12.70;99750.00;;;;337216;28;96147;-93
2022/02/18 01:00:05;;;;;;;;;;;12.50;99.90;12.60;99742.00;;;;340655;28;82516;-93